Aérodrome :
LOGIN :

S'inscrire | Disclaimer

   EN    FR    IT 

 










Légende :    VFR   VFR Marginal   IFR   IFR Intensif   IFR Très Intensif
Visi : 
Plafond : 
>= 8 km
>= 3000ft
5 à 8 km
1000 à 3000 ft
1500m à 5 km
500 à 1000 ft
800 à 1500m
200 à 500 ft
< 800m
< 200 ft
Symboles :   Orages  Brouillard  Fortes neiges  Fortes précipitations  Vent > 20 kt
SIGMETs :   Divers  Orages  Givrage  Turbulence  Onde Orograph.  Cendres Volcan.







- Altitude de l'aérodrome : 1830 ft


EBLB - Butgenbach Elsenborn

DERNIER METAR :
  • 221055Z AUTO 04009KT 3500 BR OVC004/// 09/08 Q1031 YLO

METARs EXPIRÉS :
  • 221025Z AUTO 02006KT 3200 -DZ OVC004/// 09/08 Q1031 YLO
  • 220955Z 01005KT 1200 -DZ SCT002 BKN004 09/08 Q1031 AMB AMB TEMPO RED
  • 220936Z 34003KT 1200 -DZ SCT002 BKN004 09/08 Q1031 AMB AMB TEMPO RED
  • 220925Z 33003KT 2000 BR OVC006 08/08 Q1030 YLO YLO TEMPO AMB
  • 220911Z 33003KT 3500 BR OVC008 09/08 Q1030 YLO YLO TEMPO AMB
  • 220855Z VRB02KT 4300 OVC016 10/07 Q1030 GRN

Prévision TAF périmée.
Pas de NOTAMs connus pour ce terrain.



MET'MAP, la Météo Aéronautique d'un coup d'oeil ! - Copyright ORBIFLY Décembre 2007 - Disclaimer

ORBIFLY MET'MAP TEAM :

Programmation & Développement : Alexandra Zaïnal
Conception & Développement : Baudouin d'Aumeries
Co-Programmation & Développement : Marc-Olivier Méhu
Soutien technique & logistique : Manuel Goepfert

Contact : metmap@orbifly.com




SOURCES & CREDITS :

   NOAA